Time;durP1;ratioP1;P1;durP2;ratioP2;P2;SDS_P1;SDS_P2;PMS_P1;PMS_P2;Temp;Humidity;BMP_temperature;BMP_pressure;BME280_temperature;BME280_humidity;BME280_pressure;Samples;Min_cycle;Max_cycle;Signal;HPM_P1;HPM_P2
2022/03/21 00:00:28;;;;;;;8.98;8.15;;;20.60;40.50;;;;;;5145442;27;43400;-63
2022/03/21 00:02:57;;;;;;;9.50;8.60;;;20.50;40.60;;;;;;5140796;27;43582;-62
2022/03/21 00:05:28;;;;;;;8.75;7.95;;;20.50;40.60;;;;;;5144814;27;44003;-62
2022/03/21 00:07:56;;;;;;;9.90;9.00;;;20.50;40.60;;;;;;5145281;27;43347;-62
2022/03/21 00:10:24;;;;;;;9.27;8.40;;;20.50;40.60;;;;;;5147185;27;43527;-62
2022/03/21 00:12:51;;;;;;;8.85;7.97;;;20.50;40.60;;;;;;5123955;27;44033;-62
2022/03/21 00:15:19;;;;;;;8.45;7.75;;;20.50;40.70;;;;;;5144666;27;43871;-63
2022/03/21 00:17:47;;;;;;;8.60;7.90;;;20.50;40.70;;;;;;5141955;27;43452;-62
2022/03/21 00:20:15;;;;;;;8.38;7.68;;;20.40;40.60;;;;;;5148383;27;43534;-62
2022/03/21 00:22:43;;;;;;;8.50;7.78;;;20.50;40.70;;;;;;5142192;27;43588;-62
2022/03/21 00:25:10;;;;;;;8.95;8.15;;;20.50;40.70;;;;;;5144437;27;43791;-63
2022/03/21 00:27:38;;;;;;;8.43;7.63;;;20.40;40.70;;;;;;5126470;27;44245;-63
2022/03/21 00:30:10;;;;;;;8.30;7.60;;;20.40;40.70;;;;;;5121995;27;43430;-62
2022/03/21 00:32:38;;;;;;;8.80;8.00;;;20.40;40.70;;;;;;5121984;27;43458;-62
2022/03/21 00:35:17;;;;;;;8.43;7.63;;;20.40;40.80;;;;;;5127739;27;45294;-63
2022/03/21 00:37:46;;;;;;;8.57;7.78;;;20.40;40.90;;;;;;5144810;27;43446;-63
2022/03/21 00:40:15;;;;;;;8.05;7.25;;;20.40;40.80;;;;;;5144928;27;43528;-62
2022/03/21 00:42:44;;;;;;;8.07;7.38;;;20.40;40.80;;;;;;5140505;27;43580;-63
2022/03/21 00:45:18;;;;;;;8.18;7.47;;;20.30;40.80;;;;;;5144723;27;44705;-63
2022/03/21 00:47:47;;;;;;;8.45;7.57;;;20.30;40.80;;;;;;5145789;27;43497;-62
2022/03/21 00:50:17;;;;;;;8.05;7.35;;;20.30;40.80;;;;;;5145829;27;43528;-63
2022/03/21 00:52:49;;;;;;;8.25;7.45;;;20.30;40.80;;;;;;5112377;27;43612;-62
2022/03/21 00:55:19;;;;;;;7.80;7.07;;;20.30;40.90;;;;;;5148072;27;44002;-63
2022/03/21 00:57:47;;;;;;;7.10;6.50;;;20.30;40.80;;;;;;5147763;27;43479;-63
2022/03/21 01:00:20;;;;;;;7.90;7.10;;;20.30;40.90;;;;;;5129688;27;43543;-63
2022/03/21 01:02:48;;;;;;;7.53;6.82;;;20.30;40.90;;;;;;5148037;27;43599;-63
2022/03/21 01:05:16;;;;;;;8.13;7.43;;;20.30;40.90;;;;;;5147881;27;44693;-62
2022/03/21 01:07:44;;;;;;;7.70;6.97;;;20.20;40.90;;;;;;5147808;27;43968;-63
2022/03/21 01:10:14;;;;;;;7.40;6.70;;;20.20;40.90;;;;;;5147539;27;43495;-62
2022/03/21 01:12:43;;;;;;;7.47;6.77;;;20.20;40.90;;;;;;5147972;27;43651;-62
2022/03/21 01:15:14;;;;;;;7.00;6.40;;;20.20;41.50;;;;;;5143159;27;44053;-62
2022/03/21 01:17:44;;;;;;;6.72;6.13;;;20.20;40.90;;;;;;5143503;27;43489;-62
2022/03/21 01:20:13;;;;;;;7.18;6.57;;;20.20;40.90;;;;;;5151946;27;43559;-62
2022/03/21 01:22:41;;;;;;;6.97;6.30;;;20.20;40.90;;;;;;5147337;27;43583;-62
2022/03/21 01:25:10;;;;;;;6.60;6.05;;;20.20;40.90;;;;;;5147445;27;44654;-62
2022/03/21 01:27:39;;;;;;;6.70;6.10;;;20.20;40.90;;;;;;5124842;27;43757;-62
2022/03/21 01:30:10;;;;;;;6.45;5.85;;;20.10;40.90;;;;;;5147522;27;43468;-63
2022/03/21 01:32:38;;;;;;;;;;;20.20;40.90;;;;;;5143764;27;44148;-62
2022/03/21 01:35:07;;;;;;;6.75;6.15;;;20.10;40.90;;;;;;5146924;27;44048;-62
2022/03/21 01:37:35;;;;;;;6.05;5.55;;;20.20;41.00;;;;;;5124685;27;43461;-62
2022/03/21 01:40:03;;;;;;;6.43;5.85;;;20.10;41.00;;;;;;5147790;27;43469;-62
2022/03/21 01:42:31;;;;;;;6.35;5.75;;;20.10;41.00;;;;;;5145170;27;43472;-62
2022/03/21 01:44:58;;;;;;;6.65;6.15;;;20.10;41.00;;;;;;5146988;27;43865;-62
2022/03/21 01:47:26;;;;;;;6.20;5.70;;;20.10;41.00;;;;;;5144962;27;43433;-62
2022/03/21 01:49:53;;;;;;;5.75;5.30;;;20.10;41.00;;;;;;5147243;27;43548;-62
2022/03/21 01:52:21;;;;;;;5.90;5.40;;;20.10;41.00;;;;;;5143007;27;43493;-63
2022/03/21 01:57:36;;;;;;;5.35;4.95;;;20.10;41.00;;;;;;5144291;27;43405;-63
2022/03/21 02:00:06;;;;;;;5.80;5.30;;;20.10;41.00;;;;;;5147047;27;43501;-63
2022/03/21 02:02:40;;;;;;;6.00;5.50;;;20.10;41.00;;;;;;5144158;27;43551;-62
2022/03/21 02:05:08;;;;;;;5.63;5.13;;;20.00;41.00;;;;;;5128156;27;44988;-62
2022/03/21 02:07:36;;;;;;;5.35;4.85;;;20.00;41.00;;;;;;5147039;27;43505;-62
2022/03/21 02:10:07;;;;;;;5.43;4.93;;;20.00;41.10;;;;;;5146859;27;43595;-63
2022/03/21 02:12:37;;;;;;;4.85;4.45;;;20.00;41.00;;;;;;5145895;27;43431;-62
2022/03/21 02:15:05;;;;;;;4.82;4.43;;;20.00;41.00;;;;;;5146556;27;44029;-62
2022/03/21 02:17:36;;;;;;;5.32;4.80;;;20.00;41.00;;;;;;5146858;27;43435;-62
2022/03/21 02:20:05;;;;;;;4.80;4.40;;;20.00;41.70;;;;;;5149771;27;43440;-63
2022/03/21 02:23:11;;;;;;;5.25;4.85;;;20.00;41.10;;;;;;5146674;27;43510;-63
2022/03/21 02:25:43;;;;;;;5.10;4.60;;;20.00;41.10;;;;;;5079600;27;43821;-62
2022/03/21 02:28:16;;;;;;;5.38;4.88;;;19.90;41.00;;;;;;5146512;27;43457;-62
2022/03/21 02:30:49;;;;;;;4.80;4.40;;;19.90;41.00;;;;;;5147019;27;43768;-62
2022/03/21 02:33:18;;;;;;;4.80;4.40;;;19.90;41.00;;;;;;5146654;27;43584;-63
2022/03/21 02:35:48;;;;;;;5.03;4.53;;;19.90;41.10;;;;;;5130421;27;44046;-62
2022/03/21 02:42:21;;;;;;;4.97;4.57;;;19.90;41.10;;;;;;5146352;27;43454;-62
2022/03/21 02:44:49;;;;;;;4.93;4.40;;;19.90;41.20;;;;;;5146283;27;43512;-62
2022/03/21 02:47:17;;;;;;;4.90;4.40;;;19.80;41.20;;;;;;5146693;27;44056;-63
2022/03/21 02:49:45;;;;;;;4.57;4.18;;;19.80;41.10;;;;;;5146174;27;43441;-63
2022/03/21 02:52:14;;;;;;;4.75;4.30;;;19.80;41.20;;;;;;5146426;27;43412;-62
2022/03/21 02:54:42;;;;;;;4.40;4.00;;;19.80;41.10;;;;;;5145941;27;43588;-62
2022/03/21 02:57:09;;;;;;;4.70;4.28;;;19.80;41.10;;;;;;5146629;27;44063;-62
2022/03/21 02:59:37;;;;;;;4.70;4.30;;;19.80;41.10;;;;;;5127652;27;45548;-63
2022/03/21 03:02:07;;;;;;;4.40;4.00;;;19.80;41.00;;;;;;5146447;27;43468;-62
2022/03/21 03:04:35;;;;;;;4.50;4.10;;;19.80;41.10;;;;;;5146158;27;43613;-62
2022/03/21 03:07:03;;;;;;;4.65;4.20;;;19.80;41.10;;;;;;5141663;27;44034;-62
2022/03/21 03:09:31;;;;;;;4.38;3.97;;;19.80;41.10;;;;;;5145212;27;43476;-62
2022/03/21 03:11:58;;;;;;;4.40;4.00;;;19.70;41.10;;;;;;5141327;27;43479;-63
2022/03/21 03:14:26;;;;;;;4.20;3.90;;;19.70;41.10;;;;;;5141241;27;43486;-62
2022/03/21 03:16:53;;;;;;;4.38;3.97;;;19.70;41.20;;;;;;5141675;27;44028;-63
2022/03/21 03:19:20;;;;;;;4.30;3.90;;;19.70;41.20;;;;;;5145783;27;43528;-62
2022/03/21 03:21:50;;;;;;;4.50;4.10;;;19.70;41.20;;;;;;5127946;27;43512;-63
2022/03/21 03:24:22;;;;;;;4.03;3.60;;;19.70;41.20;;;;;;5145623;27;43469;-62
2022/03/21 03:26:49;;;;;;;4.20;3.85;;;19.70;41.20;;;;;;5122662;27;44396;-62
2022/03/21 03:29:19;;;;;;;4.50;4.10;;;19.60;41.20;;;;;;5144165;27;43848;-62
2022/03/21 03:31:46;;;;;;;4.47;4.07;;;19.60;41.20;;;;;;5145677;27;44068;-62
2022/03/21 03:34:14;;;;;;;4.10;3.70;;;19.60;41.20;;;;;;5145384;27;43497;-63
2022/03/21 03:36:42;;;;;;;4.47;4.07;;;19.60;41.20;;;;;;5109900;27;44018;-62
2022/03/21 03:39:09;;;;;;;3.90;3.60;;;19.60;41.20;;;;;;5145594;27;43504;-62
2022/03/21 03:41:37;;;;;;;4.05;3.75;;;19.60;41.20;;;;;;5130551;27;43513;-63
2022/03/21 03:44:06;;;;;;;3.53;3.22;;;19.60;41.20;;;;;;5126963;27;43723;-63
2022/03/21 03:46:34;;;;;;;4.15;3.75;;;19.60;41.20;;;;;;5145345;27;44054;-62
2022/03/21 03:49:01;;;;;;;3.78;3.47;;;19.60;41.20;;;;;;5145291;27;43527;-62
2022/03/21 03:51:30;;;;;;;3.90;3.60;;;19.60;41.20;;;;;;5144322;27;43598;-62
2022/03/21 03:53:57;;;;;;;4.30;3.90;;;19.60;41.20;;;;;;5145235;27;43658;-63
2022/03/21 03:56:25;;;;;;;4.03;3.72;;;19.60;41.20;;;;;;5143798;27;44411;-62
2022/03/21 03:58:53;;;;;;;3.92;3.47;;;19.50;41.20;;;;;;5145437;27;43516;-63
2022/03/21 04:01:20;;;;;;;3.88;3.47;;;19.50;41.20;;;;;;5138652;27;43927;-62
2022/03/21 04:03:48;;;;;;;3.53;3.22;;;19.50;41.20;;;;;;5120699;27;43555;-63
2022/03/21 04:06:20;;;;;;;3.63;3.33;;;19.50;41.20;;;;;;5129857;27;43775;-63
2022/03/21 04:08:49;;;;;;;4.03;3.60;;;19.50;41.20;;;;;;5145097;27;43507;-62
2022/03/21 04:11:18;;;;;;;4.13;3.83;;;19.50;41.20;;;;;;5144795;27;43522;-62
2022/03/21 04:13:46;;;;;;;4.05;3.65;;;19.50;41.10;;;;;;5109088;27;43493;-62
2022/03/21 04:16:14;;;;;;;4.28;3.88;;;19.50;41.20;;;;;;5145027;27;43944;-62
2022/03/21 04:18:42;;;;;;;3.78;3.47;;;19.40;41.10;;;;;;5142152;27;43524;-62
2022/03/21 04:21:27;;;;;;;3.63;3.33;;;19.40;41.10;;;;;;5145384;27;43367;-62
2022/03/21 04:23:56;;;;;;;3.90;3.60;;;19.40;41.20;;;;;;5129423;27;43628;-63
2022/03/21 04:26:25;;;;;;;4.20;3.80;;;19.50;41.20;;;;;;5148783;27;43824;-63
2022/03/21 04:28:53;;;;;;;3.83;3.53;;;19.50;41.20;;;;;;5148191;27;43714;-62
2022/03/21 04:31:20;;;;;;;3.60;3.30;;;19.50;41.20;;;;;;5148961;27;43417;-63
2022/03/21 04:33:48;;;;;;;3.72;3.33;;;19.40;41.20;;;;;;5148616;27;43649;-62
2022/03/21 04:36:15;;;;;;;3.88;3.58;;;19.40;41.20;;;;;;5148462;27;44708;-63
2022/03/21 04:38:43;;;;;;;3.88;3.58;;;19.40;41.20;;;;;;5144511;27;43456;-62
2022/03/21 04:41:11;;;;;;;4.13;3.83;;;19.40;41.10;;;;;;5138375;27;43456;-62
2022/03/21 04:43:38;;;;;;;3.78;3.47;;;19.40;41.20;;;;;;5148019;27;43625;-62
2022/03/21 04:46:06;;;;;;;3.80;3.50;;;19.40;41.20;;;;;;5147944;27;44043;-62
2022/03/21 04:48:34;;;;;;;3.97;3.58;;;19.30;41.10;;;;;;5140248;27;43702;-63
2022/03/21 04:51:01;;;;;;;4.00;3.70;;;19.30;41.20;;;;;;5143658;27;43511;-62
2022/03/21 04:53:29;;;;;;;3.83;3.53;;;19.30;41.20;;;;;;5148108;27;43684;-62
2022/03/21 04:55:56;;;;;;;3.70;3.40;;;19.30;41.20;;;;;;5147840;27;43710;-62
2022/03/21 04:58:24;;;;;;;3.47;3.28;;;19.30;41.20;;;;;;5148188;27;43488;-63
2022/03/21 05:00:52;;;;;;;3.75;3.45;;;19.30;41.20;;;;;;5148317;27;43413;-62
2022/03/21 05:03:21;;;;;;;3.95;3.55;;;19.30;41.20;;;;;;5148000;27;44002;-62
2022/03/21 05:05:49;;;;;;;3.80;3.50;;;19.30;41.20;;;;;;5147274;27;44057;-62
2022/03/21 05:08:16;;;;;;;4.03;3.67;;;19.20;41.20;;;;;;5144446;27;43960;-63
2022/03/21 05:10:44;;;;;;;4.00;3.65;;;19.20;41.10;;;;;;5147660;27;43523;-63
2022/03/21 05:13:11;;;;;;;4.15;3.75;;;19.20;41.20;;;;;;5136332;27;43531;-62
2022/03/21 05:15:39;;;;;;;3.60;3.30;;;19.30;41.30;;;;;;5142564;27;44162;-62
2022/03/21 05:18:06;;;;;;;3.90;3.60;;;19.30;41.20;;;;;;5144094;27;43426;-63
2022/03/21 05:20:34;;;;;;;3.95;3.60;;;19.20;41.20;;;;;;5145789;27;43452;-62
2022/03/21 05:31:19;;;;;;;4.25;3.85;;;19.20;41.30;;;;;;5130848;27;43489;-62
2022/03/21 05:36:33;;;;;;;3.92;3.63;;;19.10;41.20;;;;;;5147333;27;45092;-62
2022/03/21 05:39:00;;;;;;;3.78;3.47;;;19.10;41.20;;;;;;5147347;27;43811;-62
2022/03/21 05:41:28;;;;;;;3.83;3.53;;;19.10;41.30;;;;;;5130906;27;43456;-62
2022/03/21 05:43:56;;;;;;;3.60;3.40;;;19.10;41.30;;;;;;5146171;27;43579;-63
2022/03/21 05:46:23;;;;;;;4.18;3.75;;;19.10;41.30;;;;;;5147294;27;44956;-61
2022/03/21 05:48:52;;;;;;;3.70;3.40;;;19.10;41.30;;;;;;5147401;27;43731;-62
2022/03/21 05:51:27;;;;;;;3.63;3.33;;;19.10;41.30;;;;;;5147466;27;43452;-62
2022/03/21 05:53:56;;;;;;;4.10;3.70;;;19.10;41.40;;;;;;5147070;27;43556;-63
2022/03/21 05:56:25;;;;;;;4.70;3.55;;;19.10;41.90;;;;;;5147055;27;44026;-62
2022/03/21 05:58:53;;;;;;;3.63;3.33;;;19.00;41.40;;;;;;5147192;27;43472;-62
2022/03/21 06:01:22;;;;;;;3.90;3.50;;;19.00;41.40;;;;;;5144991;27;43521;-62
2022/03/21 06:03:54;;;;;;;4.20;3.72;;;19.00;41.40;;;;;;5136066;27;43453;-63
2022/03/21 06:06:23;;;;;;;4.07;3.78;;;19.00;41.40;;;;;;5139700;27;43618;-62
2022/03/21 06:08:52;;;;;;;3.53;3.28;;;19.00;41.40;;;;;;5142287;27;43451;-62
2022/03/21 06:11:19;;;;;;;4.15;3.60;;;18.90;41.40;;;;;;5138580;27;43405;-62
2022/03/21 06:13:47;;;;;;;3.90;3.50;;;18.90;41.50;;;;;;5138424;27;43580;-62
2022/03/21 06:16:17;;;;;;;4.05;3.50;;;18.90;41.50;;;;;;5146692;27;43675;-62
2022/03/21 06:18:47;;;;;;;4.13;3.40;;;18.90;41.50;;;;;;5146950;27;43375;-62
2022/03/21 06:21:16;;;;;;;3.20;3.00;;;18.90;41.50;;;;;;5149113;27;43455;-62
2022/03/21 06:23:44;;;;;;;3.88;3.58;;;18.90;41.50;;;;;;5147125;27;43511;-63
2022/03/21 06:26:11;;;;;;;3.90;3.60;;;18.90;41.50;;;;;;5126969;27;44333;-62
2022/03/21 06:28:39;;;;;;;3.78;3.38;;;18.80;41.60;;;;;;5126133;27;43606;-62
2022/03/21 06:31:06;;;;;;;3.60;3.30;;;18.80;41.70;;;;;;5145339;27;43475;-62
2022/03/21 06:33:34;;;;;;;3.67;3.38;;;18.80;41.60;;;;;;5146816;27;43486;-62
2022/03/21 06:36:02;;;;;;;4.00;3.60;;;18.80;41.70;;;;;;5146510;27;44059;-63
2022/03/21 06:38:30;;;;;;;3.38;3.08;;;18.80;41.70;;;;;;5144197;27;43450;-62
2022/03/21 06:40:58;;;;;;;3.70;3.40;;;18.80;41.60;;;;;;5135055;27;43514;-62
2022/03/21 06:43:27;;;;;;;3.42;3.13;;;18.80;41.70;;;;;;5146378;27;43638;-63
2022/03/21 06:45:56;;;;;;;3.70;3.40;;;18.80;41.70;;;;;;5129570;27;44048;-62
2022/03/21 06:48:25;;;;;;;3.30;2.90;;;18.80;41.70;;;;;;5137830;27;43529;-62
2022/03/21 06:50:55;;;;;;;3.50;3.20;;;18.80;41.80;;;;;;5145643;27;43409;-63
2022/03/21 06:53:23;;;;;;;3.53;3.22;;;18.80;41.80;;;;;;5146431;27;43508;-63
2022/03/21 06:55:51;;;;;;;3.40;3.10;;;18.80;41.80;;;;;;5145785;27;43705;-62
2022/03/21 06:58:18;;;;;;;3.65;3.25;;;18.80;41.80;;;;;;5144965;27;43503;-62
2022/03/21 07:00:47;;;;;;;4.43;3.83;;;18.80;41.90;;;;;;5145898;27;43553;-62
2022/03/21 07:03:16;;;;;;;3.80;3.50;;;18.70;41.90;;;;;;5146139;27;43657;-62
2022/03/21 07:05:45;;;;;;;3.85;3.55;;;18.70;41.90;;;;;;5145412;27;43559;-62
2022/03/21 07:08:13;;;;;;;3.83;3.53;;;18.70;41.90;;;;;;5127031;27;44918;-63
2022/03/21 07:10:40;;;;;;;4.47;3.50;;;18.70;41.90;;;;;;5145525;27;43490;-62
2022/03/21 07:13:08;;;;;;;4.00;3.53;;;18.70;41.90;;;;;;5136618;27;43599;-62
2022/03/21 07:15:37;;;;;;;4.35;3.53;;;18.70;41.80;;;;;;5145421;27;43844;-61
2022/03/21 07:18:05;;;;;;;4.38;3.97;;;18.70;41.90;;;;;;5145847;27;43523;-63
2022/03/21 07:20:32;;;;;;;4.45;4.05;;;18.70;41.90;;;;;;5147076;27;43459;-62
2022/03/21 07:23:00;;;;;;;4.13;3.78;;;18.70;41.90;;;;;;5145660;27;43643;-63
2022/03/21 07:25:29;;;;;;;5.50;3.90;;;18.70;41.80;;;;;;5145306;27;44009;-62
2022/03/21 07:27:57;;;;;;;5.40;3.63;;;18.70;41.90;;;;;;5145772;27;44093;-62
2022/03/21 07:30:24;;;;;;;5.32;4.40;;;18.70;41.90;;;;;;5145930;27;43435;-62
2022/03/21 07:32:51;;;;;;;4.93;4.13;;;18.70;42.10;;;;;;5145881;27;43475;-62
2022/03/21 07:35:19;;;;;;;4.40;3.97;;;18.80;42.10;;;;;;5145261;27;43998;-62
2022/03/21 07:37:54;;;;;;;4.50;4.10;;;18.80;42.00;;;;;;5145279;27;43504;-62
2022/03/21 07:40:22;;;;;;;5.22;4.20;;;18.90;42.00;;;;;;5135606;27;43524;-63
2022/03/21 07:42:49;;;;;;;5.55;4.30;;;18.90;41.90;;;;;;5125405;27;43673;-62
2022/03/21 07:48:04;;;;;;;5.13;4.00;;;19.00;41.90;;;;;;5142261;27;44496;-63
2022/03/21 07:50:32;;;;;;;5.00;4.03;;;19.10;41.90;;;;;;5133834;27;43608;-63
2022/03/21 07:53:00;;;;;;;4.60;4.20;;;19.30;41.90;;;;;;5144671;27;43607;-62
2022/03/21 07:55:31;;;;;;;4.22;3.70;;;19.30;41.80;;;;;;5144036;27;44065;-62
2022/03/21 07:57:59;;;;;;;4.50;3.90;;;19.50;41.80;;;;;;5147500;27;43451;-62
2022/03/21 08:00:28;;;;;;;4.82;4.00;;;19.50;41.70;;;;;;5146463;27;43500;-62
2022/03/21 08:02:58;;;;;;;4.10;3.70;;;19.60;41.70;;;;;;5141641;27;43444;-62
2022/03/21 08:05:28;;;;;;;4.30;3.80;;;19.70;41.60;;;;;;5143024;27;44671;-63
2022/03/21 08:07:56;;;;;;;5.43;3.90;;;19.80;41.60;;;;;;5148242;27;43436;-62
2022/03/21 08:10:24;;;;;;;4.03;3.65;;;19.90;41.50;;;;;;5145933;27;43581;-61
2022/03/21 08:12:53;;;;;;;4.55;3.60;;;20.00;41.50;;;;;;5132670;27;43651;-62
2022/03/21 08:15:20;;;;;;;4.38;3.88;;;20.10;41.30;;;;;;5147096;27;44053;-62
2022/03/21 08:17:52;;;;;;;3.90;3.50;;;20.20;41.30;;;;;;5146501;27;43510;-62
2022/03/21 08:20:23;;;;;;;5.30;3.72;;;20.30;41.30;;;;;;5146787;27;43477;-62
2022/03/21 08:22:52;;;;;;;5.40;3.63;;;20.40;41.20;;;;;;5146953;27;43532;-62
2022/03/21 08:25:20;;;;;;;4.28;3.50;;;20.60;41.10;;;;;;5147107;27;44033;-62
2022/03/21 08:27:48;;;;;;;7.45;3.50;;;20.70;40.90;;;;;;5147316;27;43424;-62
2022/03/21 08:30:17;;;;;;;5.97;3.60;;;20.80;41.10;;;;;;5145712;27;43558;-62
2022/03/21 08:32:46;;;;;;;3.70;3.40;;;20.90;40.90;;;;;;5144834;27;43565;-62
2022/03/21 08:35:16;;;;;;;5.82;3.30;;;21.00;40.70;;;;;;5143137;27;44986;-63
2022/03/21 08:37:44;;;;;;;5.83;3.70;;;21.10;40.50;;;;;;5143042;27;43687;-62
2022/03/21 08:40:13;;;;;;;5.32;3.30;;;21.20;41.20;;;;;;5145052;27;43424;-62
2022/03/21 08:42:41;;;;;;;5.30;3.33;;;21.20;40.40;;;;;;5147505;27;43638;-62
2022/03/21 08:45:09;;;;;;;3.40;3.13;;;21.30;40.30;;;;;;5130840;27;44933;-63
2022/03/21 08:47:37;;;;;;;4.82;3.53;;;21.40;40.00;;;;;;5144579;27;43439;-62
2022/03/21 08:50:06;;;;;;;4.78;3.65;;;21.50;40.00;;;;;;5141580;27;44046;-62
2022/03/21 08:52:34;;;;;;;5.35;3.97;;;21.60;40.10;;;;;;5138097;27;43592;-62
2022/03/21 08:55:07;;;;;;;5.28;3.60;;;21.70;40.30;;;;;;5143056;27;43862;-62
2022/03/21 08:57:34;;;;;;;4.50;3.70;;;21.70;39.90;;;;;;5128764;27;43570;-62
2022/03/21 09:00:05;;;;;;;4.50;3.80;;;21.80;39.90;;;;;;5146947;27;43490;-62
2022/03/21 09:02:34;;;;;;;4.38;3.40;;;21.80;39.90;;;;;;5145760;27;43503;-62
2022/03/21 09:05:04;;;;;;;4.30;3.63;;;21.90;39.90;;;;;;5127935;27;44120;-62
2022/03/21 09:07:32;;;;;;;3.90;3.50;;;21.90;39.80;;;;;;5146247;27;43504;-61
2022/03/21 09:10:00;;;;;;;4.32;3.58;;;21.90;39.70;;;;;;5146048;27;44083;-62
2022/03/21 09:12:27;;;;;;;4.15;3.75;;;22.00;39.70;;;;;;5131244;27;43565;-62
2022/03/21 09:14:56;;;;;;;3.50;3.20;;;22.00;39.70;;;;;;5146018;27;44041;-61
2022/03/21 09:17:25;;;;;;;3.85;3.25;;;22.10;39.70;;;;;;5128278;27;43472;-62
2022/03/21 09:19:52;;;;;;;3.83;3.30;;;22.10;39.70;;;;;;5146612;27;43460;-62
2022/03/21 09:22:20;;;;;;;3.78;3.47;;;22.10;39.70;;;;;;5146368;27;43540;-62
2022/03/21 09:24:47;;;;;;;4.93;3.83;;;22.10;39.80;;;;;;5146260;27;44275;-62
2022/03/21 09:27:16;;;;;;;4.10;3.70;;;22.10;39.80;;;;;;5146789;27;43411;-61
2022/03/21 09:29:44;;;;;;;3.83;3.53;;;22.10;39.90;;;;;;5145914;27;43484;-62
2022/03/21 09:32:11;;;;;;;3.38;3.05;;;22.10;39.90;;;;;;5146170;27;43647;-61
2022/03/21 09:34:39;;;;;;;3.50;3.20;;;22.10;40.00;;;;;;5145985;27;43921;-62
2022/03/21 09:37:07;;;;;;;4.20;3.45;;;22.10;40.00;;;;;;5142901;27;43424;-62
2022/03/21 09:39:35;;;;;;;4.35;3.40;;;22.00;39.90;;;;;;5130162;27;43461;-62
2022/03/21 09:42:03;;;;;;;4.53;3.47;;;22.00;40.00;;;;;;5146111;27;43615;-62
2022/03/21 09:44:30;;;;;;;3.58;3.15;;;22.00;40.10;;;;;;5141998;27;44043;-61
2022/03/21 09:48:08;;;;;;;3.55;3.15;;;22.00;40.10;;;;;;5146453;27;44034;-62
2022/03/21 09:49:51;;;;;;;3.20;2.90;;;22.00;40.20;;;;;;5129687;27;43524;-62
2022/03/21 09:52:20;;;;;;;4.50;3.30;;;22.00;40.30;;;;;;5121641;27;43583;-62
2022/03/21 09:54:50;;;;;;;3.38;3.08;;;21.90;40.20;;;;;;5142624;27;45108;-63
2022/03/21 09:57:18;;;;;;;3.35;3.05;;;22.00;40.30;;;;;;5127426;27;43420;-62
2022/03/21 09:59:46;;;;;;;3.33;3.03;;;21.90;40.60;;;;;;5141802;27;43440;-62
2022/03/21 10:02:17;;;;;;;3.50;3.10;;;21.90;40.20;;;;;;5129391;27;44045;-62
2022/03/21 10:04:46;;;;;;;3.28;2.97;;;21.90;40.20;;;;;;5139968;27;44282;-61
2022/03/21 10:07:16;;;;;;;3.03;2.78;;;21.90;40.20;;;;;;5144896;27;43571;-62
2022/03/21 10:10:06;;;;;;;3.75;2.90;;;22.00;40.30;;;;;;5144735;27;43499;-61
2022/03/21 10:12:36;;;;;;;3.03;2.80;;;21.90;40.20;;;;;;5143897;27;43534;-61
2022/03/21 10:15:09;;;;;;;3.13;2.92;;;21.90;40.30;;;;;;5144956;27;44028;-62
2022/03/21 10:17:37;;;;;;;4.25;2.85;;;22.00;40.40;;;;;;5145697;27;44024;-62
2022/03/21 10:20:08;;;;;;;3.00;2.80;;;21.90;40.50;;;;;;5146002;27;43411;-63
2022/03/21 10:22:43;;;;;;;3.33;3.03;;;21.90;40.50;;;;;;5145268;27;43567;-61
2022/03/21 10:25:16;;;;;;;2.92;2.67;;;21.90;40.60;;;;;;5144216;27;45313;-62
2022/03/21 10:27:45;;;;;;;2.92;2.58;;;21.90;40.60;;;;;;5144487;27;43531;-62
2022/03/21 10:30:16;;;;;;;3.00;2.70;;;22.00;40.60;;;;;;5110749;27;43478;-62
2022/03/21 10:32:46;;;;;;;3.20;2.90;;;22.00;40.70;;;;;;5145670;27;43568;-62
2022/03/21 10:35:24;;;;;;;4.03;2.58;;;22.00;40.70;;;;;;5144998;27;43821;-62
2022/03/21 10:38:03;;;;;;;4.10;2.70;;;21.90;40.60;;;;;;5144183;27;43479;-61
2022/03/21 10:40:33;;;;;;;2.75;2.50;;;22.00;40.60;;;;;;5144819;27;43500;-62
2022/03/21 10:43:05;;;;;;;3.00;2.70;;;22.00;40.60;;;;;;5145248;27;43976;-62
2022/03/21 10:45:49;;;;;;;3.35;2.78;;;22.00;40.60;;;;;;5126155;27;43879;-62
2022/03/21 10:48:18;;;;;;;4.07;2.65;;;22.10;40.70;;;;;;5145155;27;43970;-62
2022/03/21 10:50:51;;;;;;;2.50;2.30;;;22.10;40.60;;;;;;5142678;27;43563;-62
2022/03/21 10:53:25;;;;;;;3.28;2.90;;;22.10;40.50;;;;;;5139795;27;43451;-61
2022/03/21 10:56:04;;;;;;;3.30;2.70;;;22.10;40.50;;;;;;5140811;27;43706;-62
2022/03/21 10:58:35;;;;;;;3.05;2.72;;;22.20;40.50;;;;;;5142917;27;43939;-62
2022/03/21 11:01:27;;;;;;;4.05;2.80;;;22.20;40.40;;;;;;5141689;27;43468;-62
2022/03/21 11:03:57;;;;;;;2.92;2.60;;;22.20;40.40;;;;;;5144279;27;43592;-61
2022/03/21 11:06:29;;;;;;;3.22;2.70;;;22.20;40.90;;;;;;5144463;27;44016;-62
2022/03/21 11:08:57;;;;;;;3.28;2.70;;;22.20;40.60;;;;;;5124408;27;43965;-61
2022/03/21 11:11:25;;;;;;;3.42;3.05;;;22.30;40.60;;;;;;5142902;27;43982;-62
2022/03/21 11:13:53;;;;;;;4.13;3.35;;;22.30;40.60;;;;;;5142173;27;43614;-62
2022/03/21 11:16:21;;;;;;;3.00;2.80;;;22.30;40.50;;;;;;5127494;27;44150;-62
2022/03/21 11:18:59;;;;;;;4.30;2.92;;;22.40;40.50;;;;;;5144188;27;43405;-62
2022/03/21 11:21:27;;;;;;;4.00;3.20;;;22.40;40.50;;;;;;5127648;27;43506;-62
2022/03/21 11:23:56;;;;;;;4.13;2.70;;;22.40;40.50;;;;;;5143917;27;43496;-62
2022/03/21 11:26:51;;;;;;;3.47;2.85;;;22.40;40.50;;;;;;5143128;27;45269;-62
2022/03/21 11:29:36;;;;;;;2.95;2.65;;;22.50;40.60;;;;;;5121763;27;43743;-62
2022/03/21 11:32:13;;;;;;;2.67;2.33;;;22.50;40.60;;;;;;5143790;27;43455;-62
2022/03/21 11:35:04;;;;;;;2.13;2.00;;;22.60;40.60;;;;;;5139863;27;43449;-62
2022/03/21 11:37:32;;;;;;;;;;;22.60;40.60;;;;;;5124139;27;44057;-62
2022/03/21 11:40:24;;;;;;;2.60;2.40;;;22.60;40.60;;;;;;5143984;27;43456;-62
2022/03/21 11:42:54;;;;;;;3.20;2.60;;;22.60;40.60;;;;;;5143786;27;43417;-62
2022/03/21 11:45:27;;;;;;;2.83;2.50;;;22.60;40.60;;;;;;5143316;27;43501;-62
2022/03/21 11:48:22;;;;;;;3.30;2.90;;;22.70;40.70;;;;;;5144372;27;44018;-62
2022/03/21 11:51:18;;;;;;;3.47;2.60;;;22.70;40.70;;;;;;5142522;27;43461;-62
2022/03/21 11:53:49;;;;;;;2.55;2.35;;;22.70;40.70;;;;;;5136452;27;43424;-62
2022/03/21 11:56:18;;;;;;;2.53;2.30;;;22.80;40.70;;;;;;5141333;27;44161;-61
2022/03/21 11:58:49;;;;;;;3.33;2.45;;;22.80;40.70;;;;;;5141212;27;44203;-62
2022/03/21 12:01:27;;;;;;;2.78;2.50;;;22.90;40.60;;;;;;5142096;27;44134;-62
2022/03/21 12:04:25;;;;;;;3.58;2.60;;;22.90;40.60;;;;;;5140286;27;43411;-61
2022/03/21 12:06:59;;;;;;;2.67;2.47;;;22.90;40.60;;;;;;5141846;27;43604;-61
2022/03/21 12:09:50;;;;;;;3.22;2.92;;;23.00;40.60;;;;;;5143160;27;44055;-61
2022/03/21 12:12:19;;;;;;;3.28;2.40;;;23.00;40.50;;;;;;5142690;27;43457;-61
2022/03/21 12:15:00;;;;;;;2.55;2.35;;;23.10;40.60;;;;;;5144124;27;43919;-61
2022/03/21 12:17:28;;;;;;;2.53;2.30;;;23.20;40.60;;;;;;5143018;27;43485;-61
2022/03/21 12:19:58;;;;;;;2.70;2.30;;;23.20;40.60;;;;;;5142849;27;44997;-61
2022/03/21 12:25:13;;;;;;;2.50;2.30;;;23.40;40.50;;;;;;5143245;27;43434;-61
2022/03/21 12:27:46;;;;;;;2.70;2.50;;;23.40;40.50;;;;;;5143521;27;43572;-61
2022/03/21 12:30:41;;;;;;;2.70;2.50;;;23.40;40.40;;;;;;5142831;27;44950;-61
2022/03/21 12:33:12;;;;;;;3.88;2.50;;;23.40;40.30;;;;;;5143720;27;43984;-61
2022/03/21 12:35:42;;;;;;;4.32;2.70;;;23.40;40.40;;;;;;5141705;27;43511;-62
2022/03/21 12:38:29;;;;;;;3.13;2.72;;;23.40;40.30;;;;;;5142509;27;43453;-61
2022/03/21 12:41:00;;;;;;;2.92;2.53;;;23.50;40.40;;;;;;5140920;27;43844;-61
2022/03/21 12:43:41;;;;;;;2.92;2.60;;;23.50;40.40;;;;;;5143321;27;44240;-62
2022/03/21 12:46:12;;;;;;;5.43;3.05;;;23.50;40.40;;;;;;5145492;27;43574;-61
2022/03/21 12:48:47;;;;;;;2.80;2.60;;;23.50;40.40;;;;;;5143568;27;43484;-61
2022/03/21 12:51:27;;;;;;;3.30;2.60;;;23.50;40.40;;;;;;5146958;27;43994;-61
2022/03/21 12:54:17;;;;;;;;;;;23.50;40.40;;;;;;5138021;27;43726;-62
2022/03/21 12:56:45;;;;;;;3.58;2.70;;;23.50;40.40;;;;;;5141190;27;43556;-61
2022/03/21 12:59:13;;;;;;;3.10;2.80;;;23.50;40.40;;;;;;5146626;27;43495;-62
2022/03/21 13:01:43;;;;;;;2.70;2.50;;;23.50;40.40;;;;;;5146785;27;44768;-62
2022/03/21 13:12:37;;;;;;;2.55;2.35;;;23.70;40.50;;;;;;5143541;27;43881;-62
2022/03/21 13:15:07;;;;;;;2.00;1.80;;;23.70;40.50;;;;;;5146357;27;43558;-61
2022/03/21 13:18:03;;;;;;;2.50;2.30;;;23.70;40.30;;;;;;5143603;27;43614;-62
2022/03/21 13:20:40;;;;;;;2.58;2.38;;;23.80;40.30;;;;;;5146472;27;43593;-61
2022/03/21 13:23:08;;;;;;;2.60;2.33;;;23.80;40.30;;;;;;5145834;27;43984;-61
2022/03/21 13:25:41;;;;;;;2.42;2.25;;;23.90;40.30;;;;;;5128208;27;43919;-61
2022/03/21 13:28:12;;;;;;;2.88;2.00;;;23.90;40.30;;;;;;5129023;27;43431;-61
2022/03/21 13:30:58;;;;;;;2.20;1.98;;;23.90;40.20;;;;;;5143941;27;43620;-61
2022/03/21 13:33:28;;;;;;;2.25;2.05;;;24.00;40.20;;;;;;5144549;27;44052;-62
2022/03/21 13:35:59;;;;;;;2.67;2.47;;;24.00;40.30;;;;;;5142063;27;43478;-61